sensor_id;sensor_type;location;lat;lon;timestamp;P1;durP1;ratioP1;P2;durP2;ratioP2
72891;SDS011;61032;50.782;6.818;2022-11-15T00:00:54;10.00;;;5.00;;
72891;SDS011;61032;50.782;6.818;2022-11-15T00:01:54;6.45;;;4.30;;
72891;SDS011;61032;50.782;6.818;2022-11-15T00:02:54;8.55;;;4.43;;
72891;SDS011;61032;50.782;6.818;2022-11-15T00:03:55;6.25;;;4.30;;
72891;SDS011;61032;50.782;6.818;2022-11-15T00:04:55;7.40;;;4.47;;
72891;SDS011;61032;50.782;6.818;2022-11-15T00:06:00;11.68;;;4.43;;
72891;SDS011;61032;50.782;6.818;2022-11-15T00:07:01;9.70;;;4.60;;
72891;SDS011;61032;50.782;6.818;2022-11-15T00:08:01;10.40;;;5.30;;
72891;SDS011;61032;50.782;6.818;2022-11-15T00:09:02;9.43;;;6.38;;
72891;SDS011;61032;50.782;6.818;2022-11-15T00:10:03;8.52;;;5.22;;
72891;SDS011;61032;50.782;6.818;2022-11-15T00:11:03;7.43;;;5.20;;
72891;SDS011;61032;50.782;6.818;2022-11-15T00:12:04;9.60;;;5.05;;
72891;SDS011;61032;50.782;6.818;2022-11-15T00:13:07;8.18;;;6.03;;
72891;SDS011;61032;50.782;6.818;2022-11-15T00:14:10;10.52;;;5.53;;
72891;SDS011;61032;50.782;6.818;2022-11-15T00:15:10;9.02;;;6.35;;
72891;SDS011;61032;50.782;6.818;2022-11-15T00:16:10;9.77;;;5.50;;
72891;SDS011;61032;50.782;6.818;2022-11-15T00:17:10;9.32;;;5.70;;
72891;SDS011;61032;50.782;6.818;2022-11-15T00:18:14;9.52;;;5.72;;
72891;SDS011;61032;50.782;6.818;2022-11-15T00:19:15;9.98;;;6.22;;
72891;SDS011;61032;50.782;6.818;2022-11-15T00:20:16;7.13;;;4.45;;
72891;SDS011;61032;50.782;6.818;2022-11-15T00:21:17;8.45;;;5.68;;
72891;SDS011;61032;50.782;6.818;2022-11-15T00:22:17;9.93;;;6.25;;
72891;SDS011;61032;50.782;6.818;2022-11-15T00:23:18;10.35;;;6.32;;
72891;SDS011;61032;50.782;6.818;2022-11-15T00:24:18;9.35;;;5.47;;
72891;SDS011;61032;50.782;6.818;2022-11-15T00:25:18;9.48;;;5.40;;
72891;SDS011;61032;50.782;6.818;2022-11-15T00:26:19;9.45;;;5.03;;
72891;SDS011;61032;50.782;6.818;2022-11-15T00:27:19;12.93;;;6.20;;
72891;SDS011;61032;50.782;6.818;2022-11-15T00:28:19;11.45;;;5.18;;
72891;SDS011;61032;50.782;6.818;2022-11-15T00:29:20;6.53;;;4.88;;
72891;SDS011;61032;50.782;6.818;2022-11-15T00:30:20;8.00;;;3.83;;
72891;SDS011;61032;50.782;6.818;2022-11-15T00:31:20;6.95;;;4.63;;
72891;SDS011;61032;50.782;6.818;2022-11-15T00:32:20;5.88;;;4.10;;
72891;SDS011;61032;50.782;6.818;2022-11-15T00:33:21;6.78;;;4.90;;
72891;SDS011;61032;50.782;6.818;2022-11-15T00:34:21;5.70;;;4.68;;
72891;SDS011;61032;50.782;6.818;2022-11-15T00:35:21;5.20;;;4.30;;
72891;SDS011;61032;50.782;6.818;2022-11-15T00:36:25;7.85;;;4.45;;
72891;SDS011;61032;50.782;6.818;2022-11-15T00:37:27;7.82;;;4.60;;
72891;SDS011;61032;50.782;6.818;2022-11-15T00:38:30;9.45;;;3.70;;
72891;SDS011;61032;50.782;6.818;2022-11-15T00:39:31;8.40;;;4.22;;
72891;SDS011;61032;50.782;6.818;2022-11-15T00:40:32;6.32;;;3.97;;
72891;SDS011;61032;50.782;6.818;2022-11-15T00:41:32;5.90;;;3.08;;
72891;SDS011;61032;50.782;6.818;2022-11-15T00:42:32;4.95;;;3.63;;
72891;SDS011;61032;50.782;6.818;2022-11-15T00:43:33;5.07;;;3.72;;
72891;SDS011;61032;50.782;6.818;2022-11-15T00:44:34;7.07;;;3.90;;
72891;SDS011;61032;50.782;6.818;2022-11-15T00:45:34;5.90;;;3.92;;
72891;SDS011;61032;50.782;6.818;2022-11-15T00:46:34;8.10;;;3.55;;
72891;SDS011;61032;50.782;6.818;2022-11-15T00:47:35;6.95;;;3.50;;
72891;SDS011;61032;50.782;6.818;2022-11-15T00:48:35;5.85;;;3.67;;
72891;SDS011;61032;50.782;6.818;2022-11-15T00:49:36;5.82;;;3.17;;
72891;SDS011;61032;50.782;6.818;2022-11-15T00:50:36;6.95;;;3.28;;
72891;SDS011;61032;50.782;6.818;2022-11-15T00:51:37;4.07;;;2.95;;
72891;SDS011;61032;50.782;6.818;2022-11-15T00:52:37;5.90;;;3.67;;
72891;SDS011;61032;50.782;6.818;2022-11-15T00:53:37;5.95;;;3.50;;
72891;SDS011;61032;50.782;6.818;2022-11-15T00:54:38;7.82;;;3.55;;
72891;SDS011;61032;50.782;6.818;2022-11-15T00:55:38;5.88;;;3.40;;
72891;SDS011;61032;50.782;6.818;2022-11-15T00:56:38;6.95;;;3.80;;
72891;SDS011;61032;50.782;6.818;2022-11-15T00:57:38;5.07;;;4.45;;
72891;SDS011;61032;50.782;6.818;2022-11-15T00:58:39;6.15;;;3.97;;
72891;SDS011;61032;50.782;6.818;2022-11-15T00:59:39;6.72;;;4.65;;
72891;SDS011;61032;50.782;6.818;2022-11-15T01:00:39;9.18;;;5.43;;
72891;SDS011;61032;50.782;6.818;2022-11-15T01:01:40;5.78;;;4.35;;
72891;SDS011;61032;50.782;6.818;2022-11-15T01:02:40;7.80;;;5.80;;
72891;SDS011;61032;50.782;6.818;2022-11-15T01:03:40;7.30;;;4.40;;
72891;SDS011;61032;50.782;6.818;2022-11-15T01:04:41;7.13;;;4.57;;
72891;SDS011;61032;50.782;6.818;2022-11-15T01:05:41;8.27;;;5.35;;
72891;SDS011;61032;50.782;6.818;2022-11-15T01:06:42;8.35;;;5.75;;
72891;SDS011;61032;50.782;6.818;2022-11-15T01:07:42;7.38;;;5.68;;
72891;SDS011;61032;50.782;6.818;2022-11-15T01:08:42;9.68;;;5.05;;
72891;SDS011;61032;50.782;6.818;2022-11-15T01:09:43;8.07;;;5.13;;
72891;SDS011;61032;50.782;6.818;2022-11-15T01:10:43;7.53;;;4.68;;
72891;SDS011;61032;50.782;6.818;2022-11-15T01:11:43;8.20;;;4.65;;
72891;SDS011;61032;50.782;6.818;2022-11-15T01:12:43;8.23;;;5.30;;
72891;SDS011;61032;50.782;6.818;2022-11-15T01:13:44;11.27;;;5.68;;
72891;SDS011;61032;50.782;6.818;2022-11-15T01:14:44;8.80;;;5.35;;
72891;SDS011;61032;50.782;6.818;2022-11-15T01:15:45;8.82;;;4.72;;
72891;SDS011;61032;50.782;6.818;2022-11-15T01:16:45;9.98;;;5.40;;
72891;SDS011;61032;50.782;6.818;2022-11-15T01:17:45;7.30;;;4.85;;
72891;SDS011;61032;50.782;6.818;2022-11-15T01:18:45;7.65;;;4.53;;
72891;SDS011;61032;50.782;6.818;2022-11-15T01:19:46;6.88;;;4.13;;
72891;SDS011;61032;50.782;6.818;2022-11-15T01:20:46;10.57;;;4.45;;
72891;SDS011;61032;50.782;6.818;2022-11-15T01:21:50;7.65;;;4.45;;
72891;SDS011;61032;50.782;6.818;2022-11-15T01:22:50;6.15;;;3.90;;
72891;SDS011;61032;50.782;6.818;2022-11-15T01:23:54;6.30;;;4.10;;
72891;SDS011;61032;50.782;6.818;2022-11-15T01:24:55;6.93;;;4.15;;
72891;SDS011;61032;50.782;6.818;2022-11-15T01:26:03;8.02;;;4.55;;
72891;SDS011;61032;50.782;6.818;2022-11-15T01:27:05;8.00;;;4.57;;
72891;SDS011;61032;50.782;6.818;2022-11-15T01:28:05;7.57;;;4.40;;
72891;SDS011;61032;50.782;6.818;2022-11-15T01:29:06;10.40;;;5.32;;
72891;SDS011;61032;50.782;6.818;2022-11-15T01:30:06;7.72;;;5.30;;
72891;SDS011;61032;50.782;6.818;2022-11-15T01:31:12;9.82;;;5.05;;
72891;SDS011;61032;50.782;6.818;2022-11-15T01:32:13;9.00;;;5.07;;
72891;SDS011;61032;50.782;6.818;2022-11-15T01:33:14;8.63;;;5.18;;
72891;SDS011;61032;50.782;6.818;2022-11-15T01:34:14;8.15;;;5.93;;
72891;SDS011;61032;50.782;6.818;2022-11-15T01:35:15;7.50;;;5.90;;
72891;SDS011;61032;50.782;6.818;2022-11-15T01:36:19;8.40;;;5.72;;
72891;SDS011;61032;50.782;6.818;2022-11-15T01:37:24;11.38;;;5.45;;
72891;SDS011;61032;50.782;6.818;2022-11-15T01:38:24;8.90;;;5.22;;
72891;SDS011;61032;50.782;6.818;2022-11-15T01:39:24;8.15;;;4.97;;
72891;SDS011;61032;50.782;6.818;2022-11-15T01:40:25;7.82;;;5.18;;
72891;SDS011;61032;50.782;6.818;2022-11-15T01:41:27;7.38;;;5.30;;
72891;SDS011;61032;50.782;6.818;2022-11-15T01:42:31;8.40;;;5.57;;
72891;SDS011;61032;50.782;6.818;2022-11-15T01:43:32;8.10;;;5.07;;
72891;SDS011;61032;50.782;6.818;2022-11-15T01:44:40;8.73;;;5.78;;
72891;SDS011;61032;50.782;6.818;2022-11-15T01:45:49;7.57;;;4.78;;
72891;SDS011;61032;50.782;6.818;2022-11-15T01:46:56;7.25;;;5.93;;
72891;SDS011;61032;50.782;6.818;2022-11-15T01:47:59;9.95;;;6.25;;
72891;SDS011;61032;50.782;6.818;2022-11-15T01:49:00;7.65;;;4.95;;
72891;SDS011;61032;50.782;6.818;2022-11-15T01:50:12;8.32;;;4.43;;
72891;SDS011;61032;50.782;6.818;2022-11-15T01:51:16;9.00;;;5.07;;
72891;SDS011;61032;50.782;6.818;2022-11-15T01:52:20;8.40;;;4.55;;
72891;SDS011;61032;50.782;6.818;2022-11-15T01:53:23;7.63;;;5.57;;
72891;SDS011;61032;50.782;6.818;2022-11-15T01:54:26;7.03;;;3.75;;
72891;SDS011;61032;50.782;6.818;2022-11-15T01:55:27;7.95;;;5.00;;
72891;SDS011;61032;50.782;6.818;2022-11-15T01:56:28;6.75;;;5.00;;
72891;SDS011;61032;50.782;6.818;2022-11-15T01:57:33;7.18;;;4.57;;
72891;SDS011;61032;50.782;6.818;2022-11-15T01:58:34;7.53;;;4.93;;
72891;SDS011;61032;50.782;6.818;2022-11-15T01:59:36;8.25;;;4.55;;
72891;SDS011;61032;50.782;6.818;2022-11-15T02:00:38;6.50;;;4.30;;
72891;SDS011;61032;50.782;6.818;2022-11-15T02:01:38;7.45;;;5.15;;
72891;SDS011;61032;50.782;6.818;2022-11-15T02:02:39;7.30;;;4.97;;
72891;SDS011;61032;50.782;6.818;2022-11-15T02:03:51;6.53;;;4.60;;
72891;SDS011;61032;50.782;6.818;2022-11-15T02:04:55;5.28;;;4.00;;
72891;SDS011;61032;50.782;6.818;2022-11-15T02:05:55;6.97;;;5.07;;
72891;SDS011;61032;50.782;6.818;2022-11-15T02:06:56;5.40;;;3.28;;
72891;SDS011;61032;50.782;6.818;2022-11-15T02:07:56;5.65;;;3.85;;
72891;SDS011;61032;50.782;6.818;2022-11-15T02:08:57;4.97;;;4.28;;
72891;SDS011;61032;50.782;6.818;2022-11-15T02:09:59;7.90;;;4.07;;
72891;SDS011;61032;50.782;6.818;2022-11-15T02:11:09;5.20;;;3.83;;
72891;SDS011;61032;50.782;6.818;2022-11-15T02:12:12;7.05;;;3.60;;
72891;SDS011;61032;50.782;6.818;2022-11-15T02:13:15;5.60;;;3.33;;
72891;SDS011;61032;50.782;6.818;2022-11-15T02:14:18;4.50;;;3.55;;
72891;SDS011;61032;50.782;6.818;2022-11-15T02:15:19;4.00;;;3.58;;
72891;SDS011;61032;50.782;6.818;2022-11-15T02:17:48;5.68;;;4.57;;
72891;SDS011;61032;50.782;6.818;2022-11-15T02:26:06;6.25;;;3.78;;
72891;SDS011;61032;50.782;6.818;2022-11-15T02:32:58;4.35;;;2.60;;
72891;SDS011;61032;50.782;6.818;2022-11-15T02:35:56;5.78;;;4.05;;
72891;SDS011;61032;50.782;6.818;2022-11-15T02:37:05;4.55;;;2.60;;
72891;SDS011;61032;50.782;6.818;2022-11-15T02:40:59;5.15;;;3.08;;
72891;SDS011;61032;50.782;6.818;2022-11-15T02:42:31;4.63;;;3.22;;
72891;SDS011;61032;50.782;6.818;2022-11-15T02:43:55;3.92;;;3.13;;
72891;SDS011;61032;50.782;6.818;2022-11-15T02:45:19;4.75;;;2.95;;
72891;SDS011;61032;50.782;6.818;2022-11-15T02:46:35;3.97;;;2.75;;
72891;SDS011;61032;50.782;6.818;2022-11-15T02:47:58;5.68;;;4.25;;
72891;SDS011;61032;50.782;6.818;2022-11-15T02:49:01;5.32;;;3.22;;
72891;SDS011;61032;50.782;6.818;2022-11-15T02:50:02;4.47;;;3.28;;
72891;SDS011;61032;50.782;6.818;2022-11-15T02:51:08;4.35;;;3.55;;
72891;SDS011;61032;50.782;6.818;2022-11-15T02:52:08;5.68;;;3.88;;
72891;SDS011;61032;50.782;6.818;2022-11-15T02:53:09;3.80;;;3.00;;
72891;SDS011;61032;50.782;6.818;2022-11-15T02:54:12;4.43;;;3.30;;
72891;SDS011;61032;50.782;6.818;2022-11-15T02:55:28;4.22;;;3.28;;
72891;SDS011;61032;50.782;6.818;2022-11-15T02:56:31;4.47;;;3.42;;
72891;SDS011;61032;50.782;6.818;2022-11-15T02:57:37;5.70;;;3.35;;
72891;SDS011;61032;50.782;6.818;2022-11-15T03:00:05;5.97;;;2.97;;
72891;SDS011;61032;50.782;6.818;2022-11-15T03:03:30;4.18;;;3.15;;
72891;SDS011;61032;50.782;6.818;2022-11-15T03:04:58;4.32;;;2.85;;
72891;SDS011;61032;50.782;6.818;2022-11-15T03:08:57;3.97;;;2.45;;
72891;SDS011;61032;50.782;6.818;2022-11-15T03:11:24;3.47;;;2.60;;
72891;SDS011;61032;50.782;6.818;2022-11-15T03:12:27;4.13;;;2.63;;
72891;SDS011;61032;50.782;6.818;2022-11-15T03:13:36;3.03;;;2.20;;
72891;SDS011;61032;50.782;6.818;2022-11-15T03:15:00;3.72;;;2.75;;
72891;SDS011;61032;50.782;6.818;2022-11-15T03:16:07;3.33;;;2.13;;
72891;SDS011;61032;50.782;6.818;2022-11-15T03:17:28;3.83;;;2.20;;
72891;SDS011;61032;50.782;6.818;2022-11-15T03:18:36;3.78;;;2.53;;
72891;SDS011;61032;50.782;6.818;2022-11-15T03:19:43;2.88;;;1.60;;
72891;SDS011;61032;50.782;6.818;2022-11-15T03:20:46;2.30;;;2.05;;
72891;SDS011;61032;50.782;6.818;2022-11-15T03:21:48;3.22;;;1.60;;
72891;SDS011;61032;50.782;6.818;2022-11-15T03:22:51;1.65;;;1.23;;
72891;SDS011;61032;50.782;6.818;2022-11-15T03:23:55;2.72;;;1.63;;
72891;SDS011;61032;50.782;6.818;2022-11-15T03:25:00;1.83;;;1.20;;
72891;SDS011;61032;50.782;6.818;2022-11-15T03:26:05;2.63;;;2.42;;
72891;SDS011;61032;50.782;6.818;2022-11-15T03:27:08;2.65;;;1.42;;
72891;SDS011;61032;50.782;6.818;2022-11-15T03:28:15;2.35;;;1.83;;
72891;SDS011;61032;50.782;6.818;2022-11-15T03:29:27;1.98;;;1.45;;
72891;SDS011;61032;50.782;6.818;2022-11-15T03:30:32;2.03;;;1.40;;
72891;SDS011;61032;50.782;6.818;2022-11-15T03:31:36;4.32;;;2.08;;
72891;SDS011;61032;50.782;6.818;2022-11-15T03:32:47;2.33;;;1.45;;
72891;SDS011;61032;50.782;6.818;2022-11-15T03:33:52;1.55;;;1.25;;
72891;SDS011;61032;50.782;6.818;2022-11-15T03:35:57;2.30;;;1.83;;
72891;SDS011;61032;50.782;6.818;2022-11-15T03:36:58;2.42;;;1.92;;
72891;SDS011;61032;50.782;6.818;2022-11-15T03:39:08;2.35;;;1.30;;
72891;SDS011;61032;50.782;6.818;2022-11-15T03:40:09;2.33;;;1.58;;
72891;SDS011;61032;50.782;6.818;2022-11-15T03:41:45;2.03;;;1.42;;
72891;SDS011;61032;50.782;6.818;2022-11-15T03:42:46;1.50;;;1.00;;
72891;SDS011;61032;50.782;6.818;2022-11-15T03:43:56;2.13;;;1.35;;
72891;SDS011;61032;50.782;6.818;2022-11-15T03:45:13;2.42;;;1.40;;
72891;SDS011;61032;50.782;6.818;2022-11-15T03:46:19;2.20;;;1.77;;
72891;SDS011;61032;50.782;6.818;2022-11-15T03:47:30;2.45;;;1.10;;
72891;SDS011;61032;50.782;6.818;2022-11-15T03:50:16;2.90;;;1.58;;
72891;SDS011;61032;50.782;6.818;2022-11-15T03:51:19;1.90;;;1.30;;
72891;SDS011;61032;50.782;6.818;2022-11-15T03:52:21;2.22;;;1.27;;
72891;SDS011;61032;50.782;6.818;2022-11-15T03:53:22;2.33;;;1.75;;
72891;SDS011;61032;50.782;6.818;2022-11-15T03:54:22;2.15;;;1.33;;
72891;SDS011;61032;50.782;6.818;2022-11-15T03:55:22;2.10;;;1.80;;
72891;SDS011;61032;50.782;6.818;2022-11-15T03:56:23;2.35;;;2.10;;
72891;SDS011;61032;50.782;6.818;2022-11-15T03:57:23;2.63;;;2.22;;
72891;SDS011;61032;50.782;6.818;2022-11-15T03:58:23;2.33;;;1.25;;
72891;SDS011;61032;50.782;6.818;2022-11-15T03:59:24;2.25;;;1.20;;
72891;SDS011;61032;50.782;6.818;2022-11-15T04:00:24;3.05;;;1.73;;
72891;SDS011;61032;50.782;6.818;2022-11-15T04:01:25;2.60;;;1.60;;
72891;SDS011;61032;50.782;6.818;2022-11-15T04:02:25;2.45;;;1.48;;
72891;SDS011;61032;50.782;6.818;2022-11-15T04:03:26;2.10;;;1.73;;
72891;SDS011;61032;50.782;6.818;2022-11-15T04:04:26;1.70;;;1.27;;
72891;SDS011;61032;50.782;6.818;2022-11-15T04:05:26;3.15;;;1.90;;
72891;SDS011;61032;50.782;6.818;2022-11-15T04:06:27;2.08;;;1.73;;
72891;SDS011;61032;50.782;6.818;2022-11-15T04:07:27;2.38;;;1.88;;
72891;SDS011;61032;50.782;6.818;2022-11-15T04:08:27;2.05;;;1.40;;
72891;SDS011;61032;50.782;6.818;2022-11-15T04:09:28;2.47;;;1.33;;
72891;SDS011;61032;50.782;6.818;2022-11-15T04:10:28;1.90;;;1.40;;
72891;SDS011;61032;50.782;6.818;2022-11-15T04:11:28;1.63;;;1.20;;
72891;SDS011;61032;50.782;6.818;2022-11-15T04:12:29;2.05;;;1.40;;
72891;SDS011;61032;50.782;6.818;2022-11-15T04:13:30;1.98;;;1.10;;
72891;SDS011;61032;50.782;6.818;2022-11-15T04:14:30;1.77;;;1.30;;
72891;SDS011;61032;50.782;6.818;2022-11-15T04:15:31;3.05;;;1.63;;
72891;SDS011;61032;50.782;6.818;2022-11-15T04:16:31;1.95;;;1.23;;
72891;SDS011;61032;50.782;6.818;2022-11-15T04:17:32;2.17;;;1.77;;
72891;SDS011;61032;50.782;6.818;2022-11-15T04:18:32;2.17;;;1.48;;
72891;SDS011;61032;50.782;6.818;2022-11-15T04:19:33;2.25;;;1.55;;
72891;SDS011;61032;50.782;6.818;2022-11-15T04:20:51;2.60;;;1.27;;
72891;SDS011;61032;50.782;6.818;2022-11-15T04:22:11;3.05;;;1.92;;
72891;SDS011;61032;50.782;6.818;2022-11-15T04:23:29;2.42;;;1.90;;
72891;SDS011;61032;50.782;6.818;2022-11-15T04:24:48;2.30;;;1.65;;
72891;SDS011;61032;50.782;6.818;2022-11-15T04:25:49;2.97;;;1.73;;
72891;SDS011;61032;50.782;6.818;2022-11-15T04:26:52;3.25;;;1.55;;
72891;SDS011;61032;50.782;6.818;2022-11-15T04:27:52;2.75;;;2.03;;
72891;SDS011;61032;50.782;6.818;2022-11-15T04:28:52;3.42;;;1.80;;
72891;SDS011;61032;50.782;6.818;2022-11-15T04:30:11;2.80;;;2.50;;
72891;SDS011;61032;50.782;6.818;2022-11-15T04:31:12;2.33;;;1.35;;
72891;SDS011;61032;50.782;6.818;2022-11-15T04:32:12;2.72;;;1.77;;
72891;SDS011;61032;50.782;6.818;2022-11-15T04:33:13;2.40;;;1.80;;
72891;SDS011;61032;50.782;6.818;2022-11-15T04:34:13;3.03;;;1.50;;
72891;SDS011;61032;50.782;6.818;2022-11-15T04:35:13;2.38;;;1.63;;
72891;SDS011;61032;50.782;6.818;2022-11-15T04:36:13;2.35;;;1.60;;
72891;SDS011;61032;50.782;6.818;2022-11-15T04:37:33;2.63;;;1.67;;
72891;SDS011;61032;50.782;6.818;2022-11-15T04:38:33;2.33;;;1.70;;
72891;SDS011;61032;50.782;6.818;2022-11-15T04:39:34;2.63;;;1.23;;
72891;SDS011;61032;50.782;6.818;2022-11-15T04:40:35;2.72;;;1.70;;
72891;SDS011;61032;50.782;6.818;2022-11-15T04:41:36;1.55;;;1.45;;
72891;SDS011;61032;50.782;6.818;2022-11-15T04:42:36;1.30;;;0.90;;
72891;SDS011;61032;50.782;6.818;2022-11-15T04:43:37;1.58;;;1.17;;
72891;SDS011;61032;50.782;6.818;2022-11-15T04:44:37;2.33;;;1.52;;
72891;SDS011;61032;50.782;6.818;2022-11-15T04:45:37;2.80;;;1.67;;
72891;SDS011;61032;50.782;6.818;2022-11-15T04:46:38;2.47;;;1.65;;
72891;SDS011;61032;50.782;6.818;2022-11-15T04:47:38;2.08;;;1.38;;
72891;SDS011;61032;50.782;6.818;2022-11-15T04:48:38;1.65;;;1.52;;
72891;SDS011;61032;50.782;6.818;2022-11-15T04:49:38;1.90;;;1.55;;
72891;SDS011;61032;50.782;6.818;2022-11-15T04:50:39;2.53;;;1.80;;
72891;SDS011;61032;50.782;6.818;2022-11-15T04:51:39;2.25;;;1.42;;
72891;SDS011;61032;50.782;6.818;2022-11-15T04:52:43;2.67;;;1.60;;
72891;SDS011;61032;50.782;6.818;2022-11-15T04:53:49;1.75;;;1.30;;
72891;SDS011;61032;50.782;6.818;2022-11-15T04:54:49;2.53;;;1.70;;
72891;SDS011;61032;50.782;6.818;2022-11-15T04:55:50;2.85;;;1.50;;
72891;SDS011;61032;50.782;6.818;2022-11-15T04:56:50;1.20;;;0.80;;
72891;SDS011;61032;50.782;6.818;2022-11-15T04:57:57;1.83;;;1.42;;
72891;SDS011;61032;50.782;6.818;2022-11-15T04:59:00;1.98;;;1.30;;
72891;SDS011;61032;50.782;6.818;2022-11-15T05:00:02;1.88;;;1.30;;
72891;SDS011;61032;50.782;6.818;2022-11-15T05:01:11;1.67;;;1.00;;
72891;SDS011;61032;50.782;6.818;2022-11-15T05:02:14;1.88;;;1.40;;
72891;SDS011;61032;50.782;6.818;2022-11-15T05:03:14;2.17;;;1.60;;
72891;SDS011;61032;50.782;6.818;2022-11-15T05:04:33;1.70;;;1.02;;
72891;SDS011;61032;50.782;6.818;2022-11-15T05:05:33;1.65;;;1.52;;
72891;SDS011;61032;50.782;6.818;2022-11-15T05:06:34;1.88;;;1.27;;
72891;SDS011;61032;50.782;6.818;2022-11-15T05:07:34;1.92;;;1.33;;
72891;SDS011;61032;50.782;6.818;2022-11-15T05:08:34;1.77;;;0.95;;
72891;SDS011;61032;50.782;6.818;2022-11-15T05:09:34;1.30;;;0.75;;
72891;SDS011;61032;50.782;6.818;2022-11-15T05:10:35;1.70;;;0.90;;
72891;SDS011;61032;50.782;6.818;2022-11-15T05:11:35;6.07;;;1.30;;
72891;SDS011;61032;50.782;6.818;2022-11-15T05:12:35;2.92;;;1.40;;
72891;SDS011;61032;50.782;6.818;2022-11-15T05:13:36;4.95;;;1.10;;
72891;SDS011;61032;50.782;6.818;2022-11-15T05:14:36;1.88;;;1.63;;
72891;SDS011;61032;50.782;6.818;2022-11-15T05:15:36;1.90;;;1.17;;
72891;SDS011;61032;50.782;6.818;2022-11-15T05:16:37;2.70;;;1.40;;
72891;SDS011;61032;50.782;6.818;2022-11-15T05:17:38;2.03;;;0.93;;
72891;SDS011;61032;50.782;6.818;2022-11-15T05:18:38;2.70;;;1.73;;
72891;SDS011;61032;50.782;6.818;2022-11-15T05:19:42;2.00;;;1.00;;
72891;SDS011;61032;50.782;6.818;2022-11-15T05:20:42;3.45;;;1.27;;
72891;SDS011;61032;50.782;6.818;2022-11-15T05:21:42;1.83;;;1.13;;
72891;SDS011;61032;50.782;6.818;2022-11-15T05:22:42;3.28;;;1.52;;
72891;SDS011;61032;50.782;6.818;2022-11-15T05:23:43;2.13;;;1.48;;
72891;SDS011;61032;50.782;6.818;2022-11-15T05:24:43;2.40;;;1.70;;
72891;SDS011;61032;50.782;6.818;2022-11-15T05:25:43;2.22;;;1.67;;
72891;SDS011;61032;50.782;6.818;2022-11-15T05:26:44;2.42;;;1.48;;
72891;SDS011;61032;50.782;6.818;2022-11-15T05:27:44;1.90;;;1.50;;
72891;SDS011;61032;50.782;6.818;2022-11-15T05:28:44;4.32;;;1.45;;
72891;SDS011;61032;50.782;6.818;2022-11-15T05:29:45;2.60;;;1.60;;
72891;SDS011;61032;50.782;6.818;2022-11-15T05:30:45;2.25;;;1.00;;
72891;SDS011;61032;50.782;6.818;2022-11-15T05:31:45;1.70;;;1.55;;
72891;SDS011;61032;50.782;6.818;2022-11-15T05:32:46;3.42;;;1.85;;
72891;SDS011;61032;50.782;6.818;2022-11-15T05:33:48;4.03;;;1.67;;
72891;SDS011;61032;50.782;6.818;2022-11-15T05:34:49;3.38;;;1.95;;
72891;SDS011;61032;50.782;6.818;2022-11-15T05:35:50;3.03;;;1.70;;
72891;SDS011;61032;50.782;6.818;2022-11-15T05:36:56;3.40;;;1.63;;
72891;SDS011;61032;50.782;6.818;2022-11-15T05:37:56;1.80;;;1.50;;
72891;SDS011;61032;50.782;6.818;2022-11-15T05:38:56;2.72;;;1.40;;
72891;SDS011;61032;50.782;6.818;2022-11-15T05:39:57;2.63;;;1.30;;
72891;SDS011;61032;50.782;6.818;2022-11-15T05:40:57;2.35;;;1.10;;
72891;SDS011;61032;50.782;6.818;2022-11-15T05:42:08;3.88;;;1.48;;
72891;SDS011;61032;50.782;6.818;2022-11-15T05:43:10;1.73;;;1.40;;
72891;SDS011;61032;50.782;6.818;2022-11-15T05:44:11;2.53;;;1.38;;
72891;SDS011;61032;50.782;6.818;2022-11-15T05:45:16;2.40;;;1.83;;
72891;SDS011;61032;50.782;6.818;2022-11-15T05:46:17;4.43;;;1.80;;
72891;SDS011;61032;50.782;6.818;2022-11-15T05:47:19;2.67;;;1.58;;
72891;SDS011;61032;50.782;6.818;2022-11-15T05:48:23;2.10;;;1.52;;
72891;SDS011;61032;50.782;6.818;2022-11-15T05:49:24;2.35;;;1.88;;
72891;SDS011;61032;50.782;6.818;2022-11-15T05:50:28;2.40;;;1.52;;
72891;SDS011;61032;50.782;6.818;2022-11-15T05:51:29;2.38;;;1.48;;
72891;SDS011;61032;50.782;6.818;2022-11-15T05:52:30;2.58;;;1.33;;
72891;SDS011;61032;50.782;6.818;2022-11-15T05:53:36;1.67;;;1.40;;
72891;SDS011;61032;50.782;6.818;2022-11-15T05:54:37;2.05;;;1.83;;
72891;SDS011;61032;50.782;6.818;2022-11-15T05:55:38;2.90;;;2.10;;
72891;SDS011;61032;50.782;6.818;2022-11-15T05:56:39;3.40;;;1.95;;
72891;SDS011;61032;50.782;6.818;2022-11-15T05:57:40;2.70;;;2.15;;
72891;SDS011;61032;50.782;6.818;2022-11-15T05:58:40;2.65;;;1.65;;
72891;SDS011;61032;50.782;6.818;2022-11-15T05:59:42;1.80;;;1.58;;
72891;SDS011;61032;50.782;6.818;2022-11-15T06:00:43;1.60;;;1.50;;
72891;SDS011;61032;50.782;6.818;2022-11-15T06:01:43;2.03;;;1.30;;
72891;SDS011;61032;50.782;6.818;2022-11-15T06:02:44;3.00;;;2.22;;
72891;SDS011;61032;50.782;6.818;2022-11-15T06:03:44;2.47;;;1.80;;
72891;SDS011;61032;50.782;6.818;2022-11-15T06:04:45;2.28;;;1.25;;
72891;SDS011;61032;50.782;6.818;2022-11-15T06:05:45;3.45;;;1.83;;
72891;SDS011;61032;50.782;6.818;2022-11-15T06:06:45;4.60;;;2.78;;
72891;SDS011;61032;50.782;6.818;2022-11-15T06:07:45;2.58;;;1.70;;
72891;SDS011;61032;50.782;6.818;2022-11-15T06:08:46;2.40;;;1.50;;
72891;SDS011;61032;50.782;6.818;2022-11-15T06:09:47;2.42;;;1.70;;
72891;SDS011;61032;50.782;6.818;2022-11-15T06:10:48;1.77;;;1.23;;
72891;SDS011;61032;50.782;6.818;2022-11-15T06:11:48;3.47;;;2.22;;
72891;SDS011;61032;50.782;6.818;2022-11-15T06:12:55;3.65;;;1.20;;
72891;SDS011;61032;50.782;6.818;2022-11-15T06:14:03;3.03;;;1.50;;
72891;SDS011;61032;50.782;6.818;2022-11-15T06:15:03;2.92;;;1.83;;
72891;SDS011;61032;50.782;6.818;2022-11-15T06:16:04;2.15;;;1.80;;
72891;SDS011;61032;50.782;6.818;2022-11-15T06:17:05;3.85;;;1.90;;
72891;SDS011;61032;50.782;6.818;2022-11-15T06:18:05;3.55;;;2.05;;
72891;SDS011;61032;50.782;6.818;2022-11-15T06:19:06;2.55;;;1.60;;
72891;SDS011;61032;50.782;6.818;2022-11-15T06:20:07;2.92;;;2.03;;
72891;SDS011;61032;50.782;6.818;2022-11-15T06:21:08;4.60;;;2.78;;
72891;SDS011;61032;50.782;6.818;2022-11-15T06:22:08;3.65;;;2.85;;
72891;SDS011;61032;50.782;6.818;2022-11-15T06:23:09;5.90;;;2.55;;
72891;SDS011;61032;50.782;6.818;2022-11-15T06:24:09;4.93;;;2.42;;
72891;SDS011;61032;50.782;6.818;2022-11-15T06:25:10;3.05;;;2.13;;
72891;SDS011;61032;50.782;6.818;2022-11-15T06:26:10;2.45;;;2.10;;
72891;SDS011;61032;50.782;6.818;2022-11-15T06:27:11;3.20;;;1.77;;
72891;SDS011;61032;50.782;6.818;2022-11-15T06:28:11;2.65;;;1.90;;
72891;SDS011;61032;50.782;6.818;2022-11-15T06:29:11;2.80;;;1.83;;
72891;SDS011;61032;50.782;6.818;2022-11-15T06:30:12;2.25;;;2.05;;
72891;SDS011;61032;50.782;6.818;2022-11-15T06:31:12;3.50;;;1.70;;
72891;SDS011;61032;50.782;6.818;2022-11-15T06:32:13;2.70;;;1.40;;
72891;SDS011;61032;50.782;6.818;2022-11-15T06:33:13;2.20;;;1.40;;
72891;SDS011;61032;50.782;6.818;2022-11-15T06:34:13;3.42;;;2.08;;
72891;SDS011;61032;50.782;6.818;2022-11-15T06:35:13;2.67;;;2.00;;
72891;SDS011;61032;50.782;6.818;2022-11-15T06:36:14;3.33;;;1.80;;
72891;SDS011;61032;50.782;6.818;2022-11-15T06:37:16;2.67;;;2.10;;
72891;SDS011;61032;50.782;6.818;2022-11-15T06:38:17;3.08;;;2.03;;
72891;SDS011;61032;50.782;6.818;2022-11-15T06:39:17;2.17;;;1.90;;
72891;SDS011;61032;50.782;6.818;2022-11-15T06:40:17;1.88;;;1.77;;
72891;SDS011;61032;50.782;6.818;2022-11-15T06:41:18;5.38;;;2.22;;
72891;SDS011;61032;50.782;6.818;2022-11-15T06:42:18;2.83;;;1.50;;
72891;SDS011;61032;50.782;6.818;2022-11-15T06:43:18;2.38;;;2.17;;
72891;SDS011;61032;50.782;6.818;2022-11-15T06:44:19;4.30;;;1.52;;
72891;SDS011;61032;50.782;6.818;2022-11-15T06:45:19;3.05;;;2.20;;
72891;SDS011;61032;50.782;6.818;2022-11-15T06:46:19;2.92;;;1.90;;
72891;SDS011;61032;50.782;6.818;2022-11-15T06:47:20;2.65;;;1.92;;
72891;SDS011;61032;50.782;6.818;2022-11-15T06:48:20;2.78;;;1.63;;
72891;SDS011;61032;50.782;6.818;2022-11-15T06:49:20;3.92;;;2.25;;